createdAt,value
2022-11-18T00:00:46.316Z,6.08
2022-11-18T00:02:47.768Z,5.98
2022-11-18T00:04:49.129Z,6.00
2022-11-18T00:06:50.478Z,6.24
2022-11-18T00:08:53.453Z,6.14
2022-11-18T00:10:55.092Z,6.13
2022-11-18T00:13:16.068Z,6.09
2022-11-18T00:15:17.484Z,6.15
2022-11-18T00:17:18.880Z,6.11
2022-11-18T00:19:23.524Z,6.15
2022-11-18T00:21:24.876Z,6.21
2022-11-18T00:23:26.256Z,6.23
2022-11-18T00:25:27.628Z,6.45
2022-11-18T00:27:32.123Z,6.46
2022-11-18T00:29:33.451Z,6.47
2022-11-18T00:31:35.037Z,6.47
2022-11-18T00:33:39.860Z,6.44
2022-11-18T00:35:41.207Z,6.47
2022-11-18T00:37:42.626Z,6.44
2022-11-18T00:39:44.283Z,6.44
2022-11-18T00:42:05.249Z,6.42
2022-11-18T00:44:09.437Z,6.44
2022-11-18T00:46:12.092Z,6.46
2022-11-18T00:48:13.431Z,6.48
2022-11-18T00:50:15.913Z,6.50
2022-11-18T00:52:17.504Z,6.54
2022-11-18T00:54:20.288Z,6.52
2022-11-18T00:56:21.647Z,6.55
2022-11-18T00:58:23.284Z,6.56
2022-11-18T01:00:24.675Z,6.57
2022-11-18T01:02:26.060Z,6.59
2022-11-18T01:04:27.781Z,6.61
2022-11-18T01:06:30.022Z,6.62
2022-11-18T01:08:31.476Z,6.55
2022-11-18T01:10:33.403Z,6.55
2022-11-18T01:12:54.703Z,6.58
2022-11-18T01:14:56.165Z,6.57
2022-11-18T01:16:57.824Z,6.58
2022-11-18T01:18:59.212Z,6.59
2022-11-18T01:21:02.644Z,6.58
2022-11-18T01:23:04.902Z,6.59
2022-11-18T01:25:06.560Z,6.56
2022-11-18T01:27:07.924Z,6.53
2022-11-18T01:29:10.378Z,6.55
2022-11-18T01:31:17.728Z,6.62
2022-11-18T01:33:19.079Z,6.53
2022-11-18T01:35:21.078Z,6.54
2022-11-18T01:37:22.893Z,6.50
2022-11-18T01:39:24.762Z,6.47
2022-11-18T01:41:27.476Z,6.44
2022-11-18T01:43:51.413Z,6.44
2022-11-18T01:45:55.788Z,6.47
2022-11-18T01:48:07.889Z,6.55
2022-11-18T01:50:10.510Z,6.63
2022-11-18T01:52:12.343Z,6.57
2022-11-18T01:54:21.258Z,6.57
2022-11-18T01:56:26.580Z,6.64
2022-11-18T01:58:36.332Z,6.68
2022-11-18T02:00:39.456Z,6.70
2022-11-18T02:02:41.713Z,6.72
2022-11-18T02:04:47.256Z,6.73
2022-11-18T02:06:48.855Z,6.73
2022-11-18T02:08:51.121Z,6.74
2022-11-18T02:10:52.477Z,6.76
2022-11-18T02:12:55.938Z,6.78
2022-11-18T02:14:57.514Z,6.80
2022-11-18T02:17:05.318Z,6.78
2022-11-18T02:19:32.105Z,6.84
2022-11-18T02:22:02.491Z,6.91
2022-11-18T02:24:27.515Z,6.85
2022-11-18T02:27:13.239Z,6.92
2022-11-18T02:29:19.612Z,6.96
2022-11-18T02:31:25.562Z,6.95
2022-11-18T02:33:50.492Z,7.02
2022-11-18T02:36:00.990Z,7.09
2022-11-18T02:38:10.929Z,7.14
2022-11-18T02:40:35.066Z,7.21
2022-11-18T02:42:40.368Z,7.26
2022-11-18T02:44:47.648Z,7.27
2022-11-18T02:46:55.882Z,7.29
2022-11-18T02:48:57.282Z,7.30
2022-11-18T02:51:01.484Z,7.29
2022-11-18T02:53:06.329Z,7.30
2022-11-18T02:55:11.273Z,7.34
2022-11-18T02:57:15.256Z,7.35
2022-11-18T02:59:20.494Z,7.35
2022-11-18T03:01:28.587Z,7.39
2022-11-18T03:03:32.730Z,7.43
2022-11-18T03:05:48.595Z,7.42
2022-11-18T03:07:57.423Z,7.44
2022-11-18T03:10:01.356Z,7.43
2022-11-18T03:12:17.507Z,7.41
2022-11-18T03:14:25.053Z,7.38
2022-11-18T03:16:33.857Z,7.37
2022-11-18T03:18:57.483Z,7.33
2022-11-18T03:21:20.829Z,7.27
2022-11-18T03:23:34.154Z,7.24
2022-11-18T03:26:12.433Z,7.25
2022-11-18T03:28:35.535Z,7.24
2022-11-18T03:30:42.802Z,7.17
2022-11-18T03:32:50.092Z,7.15
2022-11-18T03:34:59.352Z,7.16
2022-11-18T03:37:09.073Z,7.18
2022-11-18T03:39:14.250Z,7.16
2022-11-18T03:41:19.018Z,7.16
2022-11-18T03:43:25.081Z,7.17
2022-11-18T03:45:34.691Z,7.16
2022-11-18T03:47:41.306Z,7.11
2022-11-18T03:49:47.655Z,7.15
2022-11-18T03:51:54.545Z,7.14
2022-11-18T03:54:06.582Z,7.18
2022-11-18T03:56:19.280Z,7.18
2022-11-18T03:58:32.481Z,7.18
2022-11-18T04:00:39.599Z,7.19
2022-11-18T04:02:41.294Z,7.17
2022-11-18T04:04:45.555Z,7.17
2022-11-18T04:07:00.017Z,7.18
2022-11-18T04:09:10.758Z,7.20
2022-11-18T04:11:37.915Z,7.21
2022-11-18T04:13:39.607Z,7.24
2022-11-18T04:15:42.667Z,7.24
2022-11-18T04:17:44.089Z,7.21
2022-11-18T04:19:45.608Z,7.22
2022-11-18T04:21:49.011Z,7.20
2022-11-18T04:23:50.392Z,7.21
2022-11-18T04:25:51.766Z,7.19
2022-11-18T04:27:53.172Z,7.20
2022-11-18T04:29:54.533Z,7.18
2022-11-18T04:31:56.187Z,7.19
2022-11-18T04:33:57.547Z,7.16
2022-11-18T04:35:58.917Z,7.12
2022-11-18T04:38:00.350Z,7.11
2022-11-18T04:40:02.017Z,7.08
2022-11-18T04:42:03.488Z,7.08
2022-11-18T04:44:12.843Z,7.05
2022-11-18T04:46:14.233Z,7.08
2022-11-18T04:48:16.104Z,7.12
2022-11-18T04:50:17.582Z,7.07
2022-11-18T04:52:19.231Z,7.05
2022-11-18T04:54:21.435Z,7.02
2022-11-18T04:56:22.791Z,7.05
2022-11-18T04:58:24.162Z,7.04
2022-11-18T05:00:25.737Z,7.09
2022-11-18T05:02:27.109Z,7.10
2022-11-18T05:04:31.047Z,7.09
2022-11-18T05:06:33.754Z,7.10
2022-11-18T05:08:35.109Z,7.07
2022-11-18T05:10:38.380Z,7.03
2022-11-18T05:12:48.715Z,7.02
2022-11-18T05:14:51.113Z,6.99
2022-11-18T05:16:53.193Z,7.00
2022-11-18T05:18:54.716Z,7.03
2022-11-18T05:20:56.049Z,7.03
2022-11-18T05:22:57.402Z,7.01
2022-11-18T05:24:58.836Z,6.99
2022-11-18T05:27:00.449Z,7.01
2022-11-18T05:29:01.835Z,7.00
2022-11-18T05:31:07.967Z,6.99
2022-11-18T05:33:09.359Z,7.02
2022-11-18T05:35:10.737Z,7.00
2022-11-18T05:37:12.158Z,7.00
2022-11-18T05:39:13.634Z,6.98
2022-11-18T05:41:35.159Z,7.02
2022-11-18T05:43:37.056Z,7.02
2022-11-18T05:45:39.702Z,7.01
2022-11-18T05:47:59.848Z,7.02
2022-11-18T05:50:01.230Z,7.03
2022-11-18T05:52:03.595Z,7.06
2022-11-18T05:54:08.553Z,7.06
2022-11-18T05:56:20.449Z,7.05
2022-11-18T05:58:22.012Z,7.08
2022-11-18T06:00:23.475Z,7.10
2022-11-18T06:02:25.036Z,7.09
2022-11-18T06:04:36.433Z,7.12
2022-11-18T06:06:38.147Z,7.13
2022-11-18T06:08:47.439Z,7.15
2022-11-18T06:10:50.423Z,7.19
2022-11-18T06:12:57.710Z,7.18
2022-11-18T06:15:22.493Z,7.20
2022-11-18T06:17:31.803Z,7.22
2022-11-18T06:19:33.693Z,7.24
2022-11-18T06:21:35.193Z,7.26
2022-11-18T06:23:39.525Z,7.27
2022-11-18T06:25:41.695Z,7.28
2022-11-18T06:27:44.027Z,7.29
2022-11-18T06:29:45.373Z,7.32
2022-11-18T06:31:46.792Z,7.35
2022-11-18T06:33:48.160Z,7.34
2022-11-18T06:35:49.519Z,7.35
2022-11-18T06:37:50.965Z,7.38
2022-11-18T06:39:52.522Z,7.37
2022-11-18T06:41:54.286Z,7.39
2022-11-18T06:43:55.888Z,7.45
2022-11-18T06:46:20.916Z,7.47
2022-11-18T06:48:22.273Z,7.45
2022-11-18T06:50:24.270Z,7.48
2022-11-18T06:52:25.794Z,7.49
2022-11-18T06:54:27.201Z,7.49
2022-11-18T06:56:28.753Z,7.49
2022-11-18T06:58:30.111Z,7.47
2022-11-18T07:00:31.539Z,7.49
2022-11-18T07:02:36.023Z,7.49
2022-11-18T07:04:39.666Z,7.49
2022-11-18T07:06:41.054Z,7.51
2022-11-18T07:08:42.943Z,7.52
2022-11-18T07:10:52.212Z,7.51
2022-11-18T07:12:53.560Z,7.55
2022-11-18T07:14:54.934Z,7.52
2022-11-18T07:16:56.441Z,7.53
2022-11-18T07:18:57.907Z,7.51
2022-11-18T07:21:06.613Z,7.52
2022-11-18T07:23:07.975Z,7.54
2022-11-18T07:25:09.891Z,7.56
2022-11-18T07:27:11.262Z,7.56
2022-11-18T07:29:12.657Z,7.56
2022-11-18T07:31:16.490Z,7.47
2022-11-18T07:33:18.225Z,7.43
2022-11-18T07:35:19.958Z,7.45
2022-11-18T07:37:21.292Z,7.42
2022-11-18T07:39:22.644Z,7.43
2022-11-18T07:41:26.750Z,7.41
2022-11-18T07:43:28.605Z,7.36
2022-11-18T07:45:29.960Z,7.32
2022-11-18T07:47:33.962Z,7.29
2022-11-18T07:49:35.313Z,7.31
2022-11-18T07:51:38.619Z,7.31
2022-11-18T07:53:40.631Z,7.31
2022-11-18T07:55:42.067Z,7.27
2022-11-18T07:57:43.455Z,7.26
2022-11-18T07:59:44.821Z,7.26
2022-11-18T08:01:46.236Z,7.22
2022-11-18T08:03:48.066Z,7.20
2022-11-18T08:05:49.694Z,7.22
2022-11-18T08:07:51.140Z,7.26
2022-11-18T08:09:52.501Z,7.30
2022-11-18T08:11:53.866Z,7.37
2022-11-18T08:13:55.276Z,7.45
2022-11-18T08:15:56.730Z,7.49
2022-11-18T08:17:58.105Z,7.54
2022-11-18T08:19:59.462Z,7.59
2022-11-18T08:22:00.830Z,7.65
2022-11-18T08:24:06.766Z,7.74
2022-11-18T08:26:13.909Z,7.81
2022-11-18T08:28:15.380Z,7.88
2022-11-18T08:30:17.445Z,7.93
2022-11-18T08:32:18.930Z,8.00
2022-11-18T08:34:20.283Z,8.09
2022-11-18T08:36:23.751Z,8.20
2022-11-18T08:38:25.101Z,8.27
2022-11-18T08:40:27.907Z,8.27
2022-11-18T08:42:34.040Z,8.38
2022-11-18T08:44:36.128Z,8.40
2022-11-18T08:46:37.478Z,8.42
2022-11-18T08:58:26.787Z,8.65
2022-11-18T09:00:28.822Z,8.65
2022-11-18T09:02:30.187Z,8.62
2022-11-18T09:04:31.565Z,8.68
2022-11-18T09:06:34.603Z,8.70
2022-11-18T09:08:36.498Z,8.70
2022-11-18T09:10:38.475Z,8.74
2022-11-18T09:12:39.831Z,8.74
2022-11-18T09:17:06.595Z,8.85
2022-11-18T09:19:32.153Z,8.92
2022-11-18T09:21:29.867Z,8.93
2022-11-18T09:23:33.058Z,9.05
2022-11-18T09:25:34.422Z,9.11
2022-11-18T09:27:35.810Z,9.12
2022-11-18T09:29:37.723Z,9.11
2022-11-18T09:31:39.133Z,9.18
2022-11-18T09:33:41.000Z,9.21
2022-11-18T09:35:43.437Z,9.34
2022-11-18T09:37:44.892Z,9.23
2022-11-18T09:39:46.299Z,9.26
2022-11-18T11:08:36.305Z,16.35
2022-11-18T11:10:38.785Z,15.31
2022-11-18T11:12:47.049Z,14.88
2022-11-18T11:14:52.082Z,14.09
2022-11-18T11:16:56.225Z,13.78
2022-11-18T11:18:59.863Z,13.65
2022-11-18T11:21:01.254Z,13.35
2022-11-18T11:23:08.431Z,13.05
2022-11-18T11:25:17.176Z,13.09
2022-11-18T11:29:52.265Z,12.65
2022-11-18T11:31:59.640Z,12.62
2022-11-18T11:34:11.950Z,12.41
2022-11-18T11:36:24.478Z,12.31
2022-11-18T11:38:50.927Z,11.96
2022-11-18T11:40:59.757Z,11.85
2022-11-18T11:43:07.155Z,11.94
2022-11-18T11:45:50.124Z,12.01
2022-11-18T15:11:31.499Z,15.02
2022-11-18T15:13:32.887Z,13.88
2022-11-18T15:15:34.639Z,13.10
2022-11-18T15:17:36.069Z,12.66
2022-11-18T15:19:38.158Z,12.38
2022-11-18T15:21:39.560Z,12.07
2022-11-18T15:23:41.354Z,11.96
2022-11-18T15:25:42.836Z,11.76
2022-11-18T15:27:44.200Z,11.52
2022-11-18T15:29:45.873Z,11.34
2022-11-18T15:31:48.034Z,11.11
2022-11-18T15:33:50.980Z,10.92
2022-11-18T15:35:52.298Z,10.85
2022-11-18T15:37:53.644Z,10.82
2022-11-18T15:39:55.019Z,10.70
2022-11-18T15:41:56.372Z,10.67
2022-11-18T15:43:59.512Z,10.74
2022-11-18T15:46:00.906Z,10.65
2022-11-18T15:48:02.251Z,10.59
2022-11-18T15:50:03.692Z,10.55
2022-11-18T15:52:08.682Z,10.38
2022-11-18T15:54:10.341Z,10.29
2022-11-18T15:56:21.075Z,10.19
2022-11-18T15:58:22.783Z,10.05
2022-11-18T16:00:24.126Z,9.91
2022-11-18T16:02:25.499Z,9.74
2022-11-18T16:04:27.240Z,9.85
2022-11-18T16:06:28.658Z,9.77
2022-11-18T16:08:30.340Z,9.76
2022-11-18T16:10:50.341Z,9.71
2022-11-18T16:12:51.689Z,9.66
2022-11-18T16:15:13.021Z,9.56
2022-11-18T16:17:14.352Z,9.46
2022-11-18T16:19:18.980Z,9.45
2022-11-18T16:21:20.327Z,9.46
2022-11-18T16:23:21.713Z,9.39
2022-11-18T16:25:23.870Z,9.42
2022-11-18T16:27:25.223Z,9.45
2022-11-18T16:29:26.616Z,9.39
2022-11-18T16:31:40.060Z,9.37
2022-11-18T16:33:41.481Z,9.39
2022-11-18T16:35:47.018Z,9.42
2022-11-18T16:37:48.373Z,9.38
2022-11-18T16:39:49.741Z,9.41
2022-11-18T16:41:53.137Z,9.42
2022-11-18T16:43:54.503Z,9.32
2022-11-18T16:45:55.860Z,9.33
2022-11-18T16:47:57.203Z,9.30
2022-11-18T16:49:58.616Z,9.34
2022-11-18T16:52:00.056Z,9.29
2022-11-18T16:54:06.977Z,9.27
2022-11-18T16:56:08.365Z,9.24
2022-11-18T16:58:11.673Z,9.21
2022-11-18T17:00:13.547Z,9.19
2022-11-18T17:02:15.208Z,9.18
2022-11-18T17:04:16.787Z,9.16
2022-11-18T17:06:18.582Z,9.18
2022-11-18T17:08:19.911Z,9.22
2022-11-18T17:10:21.330Z,9.17
2022-11-18T17:12:22.688Z,9.15
2022-11-18T17:14:25.020Z,9.04
2022-11-18T17:16:26.911Z,9.06
2022-11-18T17:18:28.240Z,8.88
2022-11-18T17:20:29.581Z,8.89
2022-11-18T17:22:30.948Z,8.81
2022-11-18T17:24:32.632Z,8.69
2022-11-18T17:26:34.388Z,8.49
2022-11-18T17:28:37.945Z,8.55
2022-11-18T17:30:39.325Z,8.47
2022-11-18T17:32:40.659Z,8.21
2022-11-18T17:34:42.217Z,8.17
2022-11-18T17:36:43.978Z,8.04
2022-11-18T17:38:47.239Z,8.04
2022-11-18T17:40:56.228Z,7.93
2022-11-18T17:42:57.584Z,7.86
2022-11-18T17:44:58.975Z,7.77
2022-11-18T17:47:02.643Z,7.62
2022-11-18T17:49:06.495Z,7.51
2022-11-18T17:51:07.860Z,7.50
2022-11-18T17:53:09.216Z,7.52
2022-11-18T17:55:10.660Z,7.41
2022-11-18T17:57:12.054Z,7.54
2022-11-18T17:59:15.442Z,7.49
2022-11-18T18:01:18.699Z,7.45
2022-11-18T18:03:20.274Z,7.38
2022-11-18T18:05:21.684Z,7.25
2022-11-18T18:07:23.067Z,7.18
2022-11-18T18:09:28.849Z,7.15
2022-11-18T18:11:31.758Z,7.10
2022-11-18T18:13:52.040Z,6.99
2022-11-18T18:16:01.235Z,7.07
2022-11-18T18:18:03.100Z,7.14
2022-11-18T18:20:04.778Z,7.06
2022-11-18T18:22:06.128Z,7.06
2022-11-18T18:24:08.447Z,7.14
2022-11-18T18:26:10.810Z,7.17
2022-11-18T18:28:12.355Z,7.07
2022-11-18T18:30:14.677Z,7.11
2022-11-18T18:32:16.007Z,7.06
2022-11-18T18:34:18.057Z,7.07
2022-11-18T18:38:10.626Z,7.05
2022-11-18T18:42:38.375Z,6.98
2022-11-18T18:45:00.065Z,7.04
2022-11-18T18:47:01.642Z,6.97
2022-11-18T18:49:07.023Z,6.89
2022-11-18T18:51:08.373Z,6.81
2022-11-18T18:53:09.751Z,6.84
2022-11-18T18:55:11.117Z,6.85
2022-11-18T18:57:12.549Z,6.92
2022-11-18T18:59:14.123Z,6.77
2022-11-18T19:01:18.822Z,6.73
2022-11-18T19:03:20.342Z,6.68
2022-11-18T19:05:38.885Z,6.59
2022-11-18T19:07:43.507Z,6.51
2022-11-18T19:09:44.984Z,6.51
2022-11-18T19:12:05.103Z,6.56
2022-11-18T19:14:13.208Z,6.44
2022-11-18T19:16:14.604Z,6.35
2022-11-18T19:18:16.096Z,6.38
2022-11-18T19:20:36.648Z,6.28
2022-11-18T19:22:38.229Z,6.31
2022-11-18T19:24:56.492Z,6.24
2022-11-18T19:26:58.048Z,6.29
2022-11-18T19:28:59.579Z,6.25
2022-11-18T19:31:00.937Z,6.23
2022-11-18T19:33:03.928Z,6.12
2022-11-18T19:35:06.683Z,6.13
2022-11-18T19:37:08.379Z,6.03
2022-11-18T19:39:09.913Z,6.12
2022-11-18T19:41:12.948Z,6.15
2022-11-18T19:43:14.349Z,6.16
2022-11-18T19:45:15.898Z,6.15
2022-11-18T19:47:17.378Z,6.04
2022-11-18T19:49:19.061Z,5.99
2022-11-18T19:51:20.639Z,5.86
2022-11-18T19:53:34.960Z,5.89
2022-11-18T19:55:36.342Z,5.86
2022-11-18T19:57:37.796Z,5.88
2022-11-18T19:59:39.614Z,5.86
2022-11-18T20:01:41.283Z,5.76
2022-11-18T20:03:44.375Z,5.74
2022-11-18T20:05:51.740Z,5.80
2022-11-18T20:07:56.504Z,5.85
2022-11-18T20:09:58.099Z,5.61
2022-11-18T20:11:59.522Z,5.54
2022-11-18T20:14:01.269Z,5.55
2022-11-18T20:16:08.357Z,5.69
2022-11-18T20:18:10.474Z,5.56
2022-11-18T20:20:11.901Z,5.57
2022-11-18T20:22:13.286Z,5.56
2022-11-18T20:24:18.135Z,5.55
2022-11-18T20:26:21.762Z,5.59
2022-11-18T20:28:23.139Z,5.54
2022-11-18T20:30:24.523Z,5.49
2022-11-18T20:32:25.941Z,5.52
2022-11-18T20:34:27.352Z,5.39
2022-11-18T20:36:31.613Z,5.47
2022-11-18T20:38:33.370Z,5.54
2022-11-18T20:40:34.837Z,5.55
2022-11-18T20:42:54.775Z,5.50
2022-11-18T20:44:56.297Z,5.37
2022-11-18T20:46:57.673Z,5.46
2022-11-18T20:48:59.042Z,5.38
2022-11-18T20:51:15.378Z,5.31
2022-11-18T20:53:17.647Z,5.33
2022-11-18T20:55:19.155Z,5.31
2022-11-18T20:57:20.528Z,5.21
2022-11-18T20:59:22.110Z,5.23
2022-11-18T21:01:26.671Z,5.30
2022-11-18T21:03:28.091Z,5.29
2022-11-18T21:05:31.005Z,5.21
2022-11-18T21:07:33.735Z,5.29
2022-11-18T21:09:35.350Z,5.29
2022-11-18T21:11:36.830Z,5.27
2022-11-18T21:13:57.334Z,5.23
2022-11-18T21:15:58.739Z,5.13
2022-11-18T21:18:00.138Z,5.16
2022-11-18T21:20:21.674Z,5.13
2022-11-18T21:22:23.048Z,5.07
2022-11-18T21:24:32.140Z,5.03
2022-11-18T21:26:35.052Z,4.91
2022-11-18T21:28:36.470Z,4.87
2022-11-18T21:30:38.000Z,4.85
2022-11-18T21:32:39.405Z,4.89
2022-11-18T21:34:40.928Z,4.90
2022-11-18T21:36:45.982Z,4.82
2022-11-18T21:38:50.641Z,4.82
2022-11-18T21:40:52.187Z,4.74
2022-11-18T21:42:53.933Z,4.80
2022-11-18T21:44:55.372Z,4.78
2022-11-18T21:46:57.453Z,4.82
2022-11-18T21:49:00.519Z,4.67
2022-11-18T21:51:04.874Z,4.69
2022-11-18T21:53:07.562Z,4.66
2022-11-18T21:55:09.057Z,4.69
2022-11-18T21:57:10.689Z,4.68
2022-11-18T21:59:12.077Z,4.68
2022-11-18T22:01:17.422Z,4.64
2022-11-18T22:03:18.957Z,4.68
2022-11-18T22:05:20.398Z,4.59
2022-11-18T22:07:23.752Z,4.56
2022-11-18T22:09:25.138Z,4.65
2022-11-18T22:11:26.798Z,4.58
2022-11-18T22:13:28.906Z,4.66
2022-11-18T22:15:30.263Z,4.60
2022-11-18T22:17:31.718Z,4.52
2022-11-18T22:19:33.242Z,4.46
2022-11-18T22:21:34.639Z,4.50
2022-11-18T22:23:36.023Z,4.50
2022-11-18T22:25:37.386Z,4.54
2022-11-18T22:27:38.733Z,4.45
2022-11-18T22:29:40.260Z,4.38
2022-11-18T22:31:41.619Z,4.34
2022-11-18T22:33:43.095Z,4.35
2022-11-18T22:35:45.598Z,4.32
2022-11-18T22:37:46.945Z,4.28
2022-11-18T22:39:48.371Z,4.26
2022-11-18T22:42:08.429Z,4.26
2022-11-18T22:44:11.594Z,4.27
2022-11-18T22:46:12.949Z,4.24
2022-11-18T22:48:14.341Z,4.22
2022-11-18T22:50:17.181Z,4.18
2022-11-18T22:52:18.573Z,4.15
2022-11-18T22:56:41.982Z,4.18
2022-11-18T22:58:43.976Z,4.12
2022-11-18T23:00:46.021Z,4.10
2022-11-18T23:02:48.672Z,4.01
2022-11-18T23:04:50.048Z,3.96
2022-11-18T23:06:51.415Z,3.96
2022-11-18T23:08:52.816Z,3.95
2022-11-18T23:11:10.308Z,4.02
2022-11-18T23:13:30.623Z,3.89
2022-11-18T23:15:32.913Z,3.90
2022-11-18T23:17:34.297Z,3.90
2022-11-18T23:19:41.677Z,3.87
2022-11-18T23:21:43.958Z,3.86
2022-11-18T23:23:47.186Z,3.83
2022-11-18T23:25:48.556Z,3.74
2022-11-18T23:27:54.080Z,3.75
2022-11-18T23:29:55.860Z,3.87
2022-11-18T23:31:57.222Z,3.80
2022-11-18T23:33:59.509Z,3.87
2022-11-18T23:36:00.935Z,3.82
2022-11-18T23:38:02.307Z,3.83
2022-11-18T23:40:04.084Z,3.79
2022-11-18T23:42:05.830Z,3.70
2022-11-18T23:44:07.244Z,3.59
2022-11-18T23:46:09.895Z,3.65
2022-11-18T23:48:11.273Z,3.63
2022-11-18T23:50:12.683Z,3.56
2022-11-18T23:52:14.917Z,3.62
2022-11-18T23:54:16.297Z,3.62
2022-11-18T23:56:19.191Z,3.58
2022-11-18T23:58:20.562Z,3.61
